createdAt,value
2019-06-20T00:00:47.853Z,6.70
2019-06-20T00:03:16.458Z,6.43
2019-06-20T00:05:45.047Z,6.70
2019-06-20T00:08:14.520Z,5.73
2019-06-20T00:10:42.990Z,7.03
2019-06-20T00:13:13.192Z,5.87
2019-06-20T00:15:41.708Z,5.87
2019-06-20T00:18:10.354Z,6.37
2019-06-20T00:20:40.235Z,6.23
2019-06-20T00:23:10.290Z,6.23
2019-06-20T00:25:38.827Z,6.80
2019-06-20T00:28:07.210Z,6.80
2019-06-20T00:30:35.577Z,8.00
2019-06-20T00:33:03.941Z,7.30
2019-06-20T00:35:33.040Z,7.67
2019-06-20T00:38:01.430Z,8.07
2019-06-20T00:40:30.039Z,7.97
2019-06-20T00:42:58.508Z,7.90
2019-06-20T00:45:27.042Z,7.40
2019-06-20T00:47:55.519Z,8.20
2019-06-20T00:50:24.085Z,8.90
2019-06-20T00:52:54.280Z,7.97
2019-06-20T00:55:22.648Z,8.40
2019-06-20T00:57:51.954Z,7.87
2019-06-20T01:00:21.518Z,9.03
2019-06-20T01:02:49.893Z,8.63
2019-06-20T01:05:18.547Z,9.30
2019-06-20T01:07:47.027Z,8.30
2019-06-20T01:10:15.792Z,7.27
2019-06-20T01:12:44.183Z,8.50
2019-06-20T01:15:13.695Z,7.67
2019-06-20T01:17:44.417Z,10.20
2019-06-20T01:20:12.982Z,10.13
2019-06-20T01:22:43.183Z,8.83
2019-06-20T01:25:13.734Z,9.33
2019-06-20T01:27:42.096Z,9.33
2019-06-20T01:30:12.588Z,8.83
2019-06-20T01:32:41.065Z,10.30
2019-06-20T01:35:09.978Z,10.00
2019-06-20T01:37:38.343Z,9.20
2019-06-20T01:40:07.830Z,8.43
2019-06-20T01:42:37.298Z,9.57
2019-06-20T01:45:06.595Z,8.40
2019-06-20T01:47:35.083Z,9.70
2019-06-20T01:50:05.512Z,9.40
2019-06-20T01:52:33.892Z,10.83
2019-06-20T01:55:02.503Z,9.00
2019-06-20T01:57:30.982Z,8.73
2019-06-20T01:59:59.343Z,8.70
2019-06-20T02:02:27.838Z,8.60
2019-06-20T02:04:58.061Z,8.83
2019-06-20T02:07:28.168Z,9.00
2019-06-20T02:09:57.123Z,9.13
2019-06-20T02:12:26.009Z,8.23
2019-06-20T02:14:54.442Z,10.00
2019-06-20T02:17:22.911Z,9.70
2019-06-20T02:19:51.385Z,8.50
2019-06-20T02:22:19.851Z,9.90
2019-06-20T02:24:48.410Z,8.73
2019-06-20T02:27:20.289Z,9.10
2019-06-20T02:29:48.652Z,9.77
2019-06-20T02:32:17.122Z,7.93
2019-06-20T02:34:45.825Z,9.17
2019-06-20T02:37:14.206Z,9.20
2019-06-20T02:39:42.713Z,8.77
2019-06-20T02:42:11.370Z,9.27
2019-06-20T02:44:39.746Z,8.17
2019-06-20T02:47:09.129Z,8.73
2019-06-20T02:49:37.501Z,8.60
2019-06-20T02:52:05.882Z,9.07
2019-06-20T02:54:34.335Z,9.10
2019-06-20T02:57:04.006Z,8.40
2019-06-20T02:59:32.796Z,9.30
2019-06-20T03:02:01.171Z,8.97
2019-06-20T03:04:29.535Z,10.20
2019-06-20T03:06:57.999Z,8.90
2019-06-20T03:09:28.170Z,8.20
2019-06-20T03:11:56.677Z,8.50
2019-06-20T03:14:25.045Z,8.60
2019-06-20T03:16:53.473Z,8.93
2019-06-20T03:19:21.955Z,8.20
2019-06-20T03:21:50.618Z,9.07
2019-06-20T03:24:19.089Z,8.83
2019-06-20T03:26:47.663Z,8.83
2019-06-20T03:29:16.051Z,8.13
2019-06-20T03:31:44.809Z,8.97
2019-06-20T03:34:13.320Z,8.70
2019-06-20T03:36:41.896Z,8.67
2019-06-20T03:39:10.356Z,8.30
2019-06-20T03:41:39.543Z,7.97
2019-06-20T03:44:07.918Z,8.50
2019-06-20T03:46:36.473Z,8.50
2019-06-20T03:49:05.259Z,9.90
2019-06-20T03:51:33.636Z,8.23
2019-06-20T03:54:02.098Z,9.13
2019-06-20T03:56:30.637Z,9.10
2019-06-20T03:58:58.973Z,9.67
2019-06-20T04:01:27.446Z,10.53
2019-06-20T04:03:55.810Z,8.83
2019-06-20T04:06:24.314Z,9.10
2019-06-20T04:08:52.774Z,8.30
2019-06-20T04:11:21.759Z,8.70
2019-06-20T04:13:50.131Z,9.40
2019-06-20T04:16:18.562Z,10.40
2019-06-20T04:18:49.236Z,10.90
2019-06-20T04:21:17.714Z,10.60
2019-06-20T04:23:46.190Z,11.60
2019-06-20T04:26:14.667Z,11.67
2019-06-20T04:28:43.248Z,10.13
2019-06-20T04:31:11.720Z,11.27
2019-06-20T04:33:40.249Z,11.87
2019-06-20T04:36:09.027Z,10.47
2019-06-20T04:38:37.414Z,10.77
2019-06-20T04:41:07.273Z,10.40
2019-06-20T04:43:35.732Z,10.50
2019-06-20T04:46:13.044Z,9.47
2019-06-20T04:48:43.100Z,10.10
2019-06-20T04:51:11.571Z,9.70
2019-06-20T04:53:39.960Z,10.03
2019-06-20T04:56:08.465Z,9.40
2019-06-20T04:58:36.940Z,10.90
2019-06-20T05:01:05.422Z,9.00
2019-06-20T05:03:33.887Z,8.40
2019-06-20T05:06:02.425Z,9.10
2019-06-20T05:08:30.833Z,9.50
2019-06-20T05:10:59.755Z,9.13
2019-06-20T05:13:29.525Z,9.70
2019-06-20T05:15:58.539Z,9.90
2019-06-20T05:18:26.912Z,8.53
2019-06-20T05:20:55.630Z,9.27
2019-06-20T05:23:24.172Z,9.43
2019-06-20T05:25:53.290Z,10.27
2019-06-20T05:28:22.435Z,10.17
2019-06-20T05:30:51.619Z,10.47
2019-06-20T05:33:20.116Z,10.33
2019-06-20T05:35:48.494Z,8.90
2019-06-20T05:38:17.377Z,9.13
2019-06-20T05:40:45.838Z,10.40
2019-06-20T05:43:14.333Z,9.93
2019-06-20T05:45:45.189Z,9.60
2019-06-20T05:48:13.227Z,9.73
2019-06-20T05:50:41.986Z,8.67
2019-06-20T05:53:11.775Z,9.33
2019-06-20T05:55:42.093Z,9.40
2019-06-20T05:58:10.773Z,9.53
2019-06-20T06:00:39.160Z,8.00
2019-06-20T06:03:08.048Z,14.93
2019-06-20T06:05:37.152Z,12.53
2019-06-20T06:08:05.694Z,11.07
2019-06-20T06:10:34.210Z,9.03
2019-06-20T06:13:03.113Z,8.90
2019-06-20T06:15:31.784Z,9.00
2019-06-20T06:18:00.245Z,11.80
2019-06-20T06:20:28.825Z,9.80
2019-06-20T06:22:57.177Z,11.93
2019-06-20T06:25:26.708Z,9.37
2019-06-20T06:27:55.178Z,9.13
2019-06-20T06:30:23.544Z,9.60
2019-06-20T06:32:52.143Z,10.13
2019-06-20T06:35:20.751Z,9.20
2019-06-20T06:37:49.654Z,9.10
2019-06-20T06:40:18.525Z,8.93
2019-06-20T06:42:47.023Z,8.63
2019-06-20T06:45:17.263Z,9.33
2019-06-20T06:47:45.706Z,9.40
2019-06-20T06:50:14.826Z,8.70
2019-06-20T06:52:43.333Z,8.90
2019-06-20T06:55:13.801Z,8.60
2019-06-20T06:57:42.213Z,10.73
2019-06-20T07:00:11.318Z,9.10
2019-06-20T07:02:40.314Z,9.30
2019-06-20T07:05:08.937Z,9.20
2019-06-20T07:07:37.283Z,8.73
2019-06-20T07:10:06.997Z,9.27
2019-06-20T07:12:35.383Z,8.53
2019-06-20T07:15:07.201Z,8.37
2019-06-20T07:17:35.671Z,8.37
2019-06-20T07:20:06.315Z,8.90
2019-06-20T07:22:34.898Z,8.10
2019-06-20T07:25:04.255Z,7.87
2019-06-20T07:27:32.633Z,7.13
2019-06-20T07:30:01.097Z,8.30
2019-06-20T07:32:31.284Z,7.57
2019-06-20T07:34:59.811Z,7.90
2019-06-20T07:37:28.202Z,7.10
2019-06-20T07:39:56.571Z,6.50
2019-06-20T07:42:24.950Z,7.50
2019-06-20T07:44:53.305Z,6.90
2019-06-20T07:47:21.778Z,6.70
2019-06-20T07:49:50.142Z,6.83
2019-06-20T07:52:18.613Z,7.80
2019-06-20T07:54:47.218Z,7.63
2019-06-20T07:57:16.284Z,6.33
2019-06-20T07:59:44.856Z,6.30
2019-06-20T08:02:13.313Z,6.67
2019-06-20T08:04:41.691Z,6.43
2019-06-20T08:07:10.756Z,6.83
2019-06-20T08:09:44.739Z,6.37
2019-06-20T08:12:09.413Z,5.97
2019-06-20T08:14:37.795Z,6.43
2019-06-20T08:17:06.156Z,4.60
2019-06-20T08:19:34.625Z,4.80
2019-06-20T08:22:03.188Z,6.37
2019-06-20T08:24:31.608Z,6.27
2019-06-20T08:27:00.376Z,5.10
2019-06-20T08:29:28.971Z,6.07
2019-06-20T08:31:59.741Z,5.17
2019-06-20T08:34:29.532Z,5.40
2019-06-20T08:36:59.370Z,5.60
2019-06-20T08:39:29.564Z,4.83
2019-06-20T08:41:59.215Z,5.03
2019-06-20T08:44:29.059Z,5.50
2019-06-20T08:46:59.357Z,5.00
2019-06-20T08:49:29.665Z,5.50
2019-06-20T08:51:59.200Z,5.80
2019-06-20T08:54:28.379Z,5.53
2019-06-20T08:56:57.462Z,5.67
2019-06-20T08:59:27.310Z,4.60
2019-06-20T09:01:58.058Z,5.10
2019-06-20T09:04:26.056Z,5.70
2019-06-20T09:06:56.951Z,4.90
2019-06-20T09:09:25.662Z,4.80
2019-06-20T09:11:55.033Z,5.40
2019-06-20T09:14:24.421Z,5.47
2019-06-20T09:16:54.985Z,4.80
2019-06-20T09:19:23.566Z,4.80
2019-06-20T09:21:53.038Z,5.93
2019-06-20T09:24:22.303Z,5.80
2019-06-20T09:26:53.853Z,5.90
2019-06-20T09:29:22.365Z,5.23
2019-06-20T09:31:52.472Z,5.27
2019-06-20T09:34:21.001Z,5.57
2019-06-20T09:36:49.399Z,6.07
2019-06-20T09:39:17.884Z,4.90
2019-06-20T09:41:46.461Z,5.67
2019-06-20T09:44:14.926Z,5.60
2019-06-20T09:46:43.496Z,5.90
2019-06-20T09:49:11.982Z,5.60
2019-06-20T09:51:40.338Z,4.97
2019-06-20T09:54:08.862Z,5.70
2019-06-20T09:56:37.616Z,5.07
2019-06-20T09:59:06.228Z,5.67
2019-06-20T10:01:34.580Z,5.57
2019-06-20T10:04:03.203Z,5.07
2019-06-20T10:06:31.746Z,5.70
2019-06-20T10:09:00.339Z,5.93
2019-06-20T10:11:28.708Z,5.70
2019-06-20T10:13:58.451Z,4.70
2019-06-20T10:16:27.232Z,5.50
2019-06-20T10:18:56.575Z,4.70
2019-06-20T10:21:25.068Z,5.67
2019-06-20T10:23:53.966Z,5.30
2019-06-20T10:26:22.700Z,5.27
2019-06-20T10:28:51.502Z,6.13
2019-06-20T10:31:19.932Z,5.83
2019-06-20T10:33:48.460Z,5.67
2019-06-20T10:36:16.956Z,5.83
2019-06-20T10:38:46.513Z,4.73
2019-06-20T10:41:15.063Z,5.33
2019-06-20T10:43:44.691Z,4.83
2019-06-20T10:46:14.423Z,5.40
2019-06-20T10:48:44.236Z,5.43
2019-06-20T10:51:32.898Z,5.80
2019-06-20T10:54:01.299Z,5.80
2019-06-20T10:56:29.811Z,5.07
2019-06-20T10:58:58.163Z,4.97
2019-06-20T11:01:26.648Z,5.00
2019-06-20T11:03:55.026Z,5.47
2019-06-20T11:06:23.579Z,5.70
2019-06-20T11:08:51.950Z,5.20
2019-06-20T11:11:20.539Z,5.67
2019-06-20T11:13:48.936Z,6.30
2019-06-20T11:16:17.369Z,6.17
2019-06-20T11:18:46.362Z,6.63
2019-06-20T11:21:14.831Z,6.17
2019-06-20T11:23:43.206Z,6.77
2019-06-20T11:26:11.606Z,6.20
2019-06-20T11:28:41.335Z,6.90
2019-06-20T11:31:09.922Z,6.27
2019-06-20T11:33:40.093Z,6.40
2019-06-20T11:36:08.861Z,6.40
2019-06-20T11:38:39.054Z,6.47
2019-06-20T11:41:08.334Z,6.40
2019-06-20T11:43:38.141Z,6.07
2019-06-20T11:46:07.079Z,6.03
2019-06-20T11:48:36.757Z,6.50
2019-06-20T11:51:05.399Z,5.63
2019-06-20T11:53:35.291Z,6.47
2019-06-20T11:56:04.362Z,5.97
2019-06-20T11:58:32.850Z,7.23
2019-06-20T12:01:03.963Z,6.97
2019-06-20T12:03:31.806Z,6.20
2019-06-20T12:06:00.212Z,5.83
2019-06-20T12:08:28.693Z,6.10
2019-06-20T12:10:57.213Z,6.23
2019-06-20T12:13:27.440Z,7.03
2019-06-20T12:15:55.881Z,7.13
2019-06-20T12:18:25.184Z,6.13
2019-06-20T12:20:53.556Z,6.27
2019-06-20T12:23:21.963Z,6.60
2019-06-20T12:25:51.231Z,5.83
2019-06-20T12:28:19.630Z,5.93
2019-06-20T12:30:48.439Z,6.20
2019-06-20T12:33:17.159Z,5.83
2019-06-20T12:35:46.672Z,5.83
2019-06-20T12:38:15.370Z,6.03
2019-06-20T12:40:44.129Z,7.50
2019-06-20T12:43:12.656Z,6.30
2019-06-20T12:45:42.957Z,6.80
2019-06-20T12:48:11.555Z,6.47
2019-06-20T12:50:41.403Z,5.80
2019-06-20T12:53:11.116Z,6.40
2019-06-20T12:55:42.427Z,6.37
2019-06-20T12:58:10.987Z,6.20
2019-06-20T13:00:41.621Z,6.13
2019-06-20T13:03:10.118Z,7.20
2019-06-20T13:05:39.803Z,6.23
2019-06-20T13:08:13.327Z,5.97
2019-06-20T13:10:41.800Z,6.27
2019-06-20T13:13:10.448Z,6.53
2019-06-20T13:15:39.379Z,7.10
2019-06-20T13:18:09.537Z,6.07
2019-06-20T13:20:39.311Z,7.47
2019-06-20T13:23:08.563Z,6.77
2019-06-20T13:25:37.761Z,6.43
2019-06-20T13:28:07.661Z,7.20
2019-06-20T13:30:36.185Z,7.00
2019-06-20T13:33:04.742Z,7.00
2019-06-20T13:35:33.218Z,8.90
2019-06-20T13:38:01.724Z,7.73
2019-06-20T13:40:30.219Z,7.40
2019-06-20T13:42:58.702Z,7.60
2019-06-20T13:45:27.242Z,8.23
2019-06-20T13:47:55.744Z,9.40
2019-06-20T13:50:25.445Z,9.73
2019-06-20T13:52:54.135Z,9.50
2019-06-20T13:55:23.013Z,12.90
2019-06-20T13:57:51.792Z,10.70
2019-06-20T14:00:22.502Z,11.50
2019-06-20T14:02:51.740Z,11.60
2019-06-20T14:05:20.996Z,13.00
2019-06-20T14:07:53.181Z,13.10
2019-06-20T14:10:20.516Z,14.93
2019-06-20T14:12:49.161Z,14.20
2019-06-20T14:15:18.666Z,13.33
2019-06-20T14:17:47.334Z,12.70
2019-06-20T14:20:16.211Z,15.20
2019-06-20T14:22:45.088Z,14.13
2019-06-20T14:25:16.274Z,12.70
2019-06-20T14:27:45.985Z,15.47
2019-06-20T14:30:17.558Z,13.27
2019-06-20T14:32:47.258Z,13.13
2019-06-20T14:35:17.289Z,14.90
2019-06-20T14:37:47.323Z,17.97
2019-06-20T14:40:16.327Z,16.27
2019-06-20T14:42:45.948Z,16.37
2019-06-20T14:45:15.018Z,16.40
2019-06-20T14:47:43.612Z,15.00
2019-06-20T14:50:16.755Z,14.00
2019-06-20T14:52:47.649Z,15.57
2019-06-20T14:55:15.824Z,14.40
2019-06-20T14:57:46.642Z,15.90
2019-06-20T15:00:17.132Z,13.47
2019-06-20T15:02:47.223Z,15.80
2019-06-20T15:05:17.577Z,14.40
2019-06-20T15:07:47.408Z,14.00
2019-06-20T15:10:16.379Z,13.20
2019-06-20T15:12:47.433Z,14.90
2019-06-20T15:15:15.998Z,16.03
2019-06-20T15:17:45.221Z,13.40
2019-06-20T15:20:15.182Z,13.37
2019-06-20T15:22:43.607Z,12.83
2019-06-20T15:25:14.122Z,11.10
2019-06-20T15:27:47.230Z,11.60
2019-06-20T15:30:18.353Z,10.70
2019-06-20T15:32:59.290Z,11.03
2019-06-20T15:35:17.150Z,12.10
2019-06-20T15:37:46.645Z,9.43
2019-06-20T15:40:16.564Z,10.70
2019-06-20T15:42:44.981Z,9.63
2019-06-20T15:45:14.216Z,10.93
2019-06-20T15:47:42.741Z,9.20
2019-06-20T15:50:11.334Z,9.10
2019-06-20T15:52:40.762Z,9.27
2019-06-20T15:55:09.611Z,9.77
2019-06-20T15:57:45.409Z,8.70
2019-06-20T16:00:14.175Z,10.10
2019-06-20T16:02:42.556Z,9.57
2019-06-20T16:05:11.291Z,8.77
2019-06-20T16:07:40.375Z,8.97
2019-06-20T16:10:09.170Z,9.17
2019-06-20T16:12:37.534Z,9.00
2019-06-20T16:15:07.014Z,10.97
2019-06-20T16:17:35.990Z,10.43
2019-06-20T16:20:06.761Z,10.60
2019-06-20T16:22:35.302Z,9.33
2019-06-20T16:25:05.057Z,9.77
2019-06-20T16:27:34.081Z,9.43
2019-06-20T16:30:02.589Z,9.57
2019-06-20T16:32:32.798Z,9.57
2019-06-20T16:35:03.601Z,9.60
2019-06-20T16:37:32.270Z,9.50
2019-06-20T16:40:00.775Z,9.37
2019-06-20T16:42:29.357Z,8.70
2019-06-20T16:44:57.876Z,9.00
2019-06-20T16:47:26.384Z,10.50
2019-06-20T16:49:56.133Z,10.43
2019-06-20T16:52:24.798Z,9.60
2019-06-20T16:54:53.314Z,7.77
2019-06-20T16:57:21.807Z,9.53
2019-06-20T16:59:50.308Z,10.10
2019-06-20T17:02:18.686Z,9.83
2019-06-20T17:04:47.067Z,10.90
2019-06-20T17:07:15.844Z,9.37
2019-06-20T17:09:44.305Z,9.83
2019-06-20T17:12:14.493Z,11.00
2019-06-20T17:14:42.962Z,9.37
2019-06-20T17:17:11.740Z,9.13
2019-06-20T17:19:42.215Z,10.27
2019-06-20T17:22:10.509Z,10.43
2019-06-20T17:24:38.990Z,10.33
2019-06-20T17:27:07.906Z,10.60
2019-06-20T17:29:36.301Z,10.10
2019-06-20T17:32:04.688Z,10.50
2019-06-20T17:34:33.102Z,10.90
2019-06-20T17:37:01.587Z,9.90
2019-06-20T17:39:29.974Z,9.90
2019-06-20T17:41:58.862Z,10.40
2019-06-20T17:44:27.664Z,10.30
2019-06-20T17:46:56.180Z,10.50
2019-06-20T17:49:26.367Z,9.67
2019-06-20T17:51:54.753Z,9.73
2019-06-20T17:54:23.230Z,10.50
2019-06-20T17:56:51.746Z,10.10
2019-06-20T17:59:22.721Z,10.60
2019-06-20T18:01:50.633Z,9.50
2019-06-20T18:04:19.018Z,10.77
2019-06-20T18:06:47.596Z,13.97
2019-06-20T18:09:16.039Z,10.50
2019-06-20T18:11:44.513Z,10.70
2019-06-20T18:14:12.977Z,9.87
2019-06-20T18:16:41.486Z,10.30
2019-06-20T18:19:09.952Z,10.77
2019-06-20T18:21:38.338Z,9.57
2019-06-20T18:24:06.710Z,9.40
2019-06-20T18:26:35.317Z,10.30
2019-06-20T18:29:03.901Z,8.90
2019-06-20T18:31:32.271Z,9.93
2019-06-20T18:34:00.654Z,9.50
2019-06-20T18:36:29.434Z,9.40
2019-06-20T18:38:57.935Z,9.67
2019-06-20T18:41:26.303Z,9.30
2019-06-20T18:43:54.706Z,10.43
2019-06-20T18:46:23.103Z,9.50
2019-06-20T18:48:51.484Z,10.50
2019-06-20T18:51:19.980Z,9.80
2019-06-20T18:53:50.567Z,9.73
2019-06-20T18:56:18.866Z,10.57
2019-06-20T18:58:47.252Z,9.23
2019-06-20T19:01:15.837Z,9.70
2019-06-20T19:03:44.257Z,10.67
2019-06-20T19:06:12.691Z,10.13
2019-06-20T19:08:41.123Z,9.67
2019-06-20T19:11:11.566Z,9.27
2019-06-20T19:13:40.033Z,10.27
2019-06-20T19:16:08.703Z,10.30
2019-06-20T19:18:38.894Z,10.87
2019-06-20T19:21:07.302Z,9.57
2019-06-20T19:23:35.676Z,9.70
2019-06-20T19:26:04.681Z,10.93
2019-06-20T19:28:33.021Z,10.57
2019-06-20T19:31:01.634Z,11.10
2019-06-20T19:33:30.896Z,10.70
2019-06-20T19:35:59.429Z,11.57
2019-06-20T19:38:27.857Z,12.13
2019-06-20T19:40:56.319Z,12.87
2019-06-20T19:43:24.782Z,12.47
2019-06-20T19:45:53.350Z,11.40
2019-06-20T19:48:21.843Z,11.77
2019-06-20T19:50:50.341Z,12.50
2019-06-20T19:53:18.822Z,11.70
2019-06-20T19:55:47.290Z,12.73
2019-06-20T19:58:16.182Z,12.37
2019-06-20T20:00:45.206Z,11.97
2019-06-20T20:03:13.786Z,11.00
2019-06-20T20:05:42.760Z,12.50
2019-06-20T20:08:11.246Z,11.67
2019-06-20T20:10:44.344Z,12.40
2019-06-20T20:13:15.355Z,12.67
2019-06-20T20:15:43.883Z,11.43
2019-06-20T20:18:13.426Z,11.70
2019-06-20T20:20:42.895Z,11.17
2019-06-20T20:23:11.644Z,11.80
2019-06-20T20:25:40.296Z,12.57
2019-06-20T20:28:08.656Z,11.97
2019-06-20T20:30:37.290Z,12.13
2019-06-20T20:33:05.758Z,12.03
2019-06-20T20:35:35.802Z,11.57
2019-06-20T20:38:04.903Z,11.10
2019-06-20T20:40:35.387Z,12.10
2019-06-20T20:43:04.103Z,12.10
2019-06-20T20:45:32.624Z,13.10
2019-06-20T20:48:01.127Z,12.77
2019-06-20T20:50:29.492Z,11.40
2019-06-20T20:52:58.098Z,12.70
2019-06-20T20:55:26.683Z,10.90
2019-06-20T20:57:56.579Z,11.53
2019-06-20T21:00:26.266Z,13.03
2019-06-20T21:02:54.799Z,12.23
2019-06-20T21:05:23.336Z,10.93
2019-06-20T21:07:52.046Z,11.40
2019-06-20T21:10:20.521Z,13.10
2019-06-20T21:12:48.998Z,13.37
2019-06-20T21:15:17.909Z,13.43
2019-06-20T21:17:46.278Z,12.50
2019-06-20T21:20:16.348Z,12.67
2019-06-20T21:22:44.800Z,12.07
2019-06-20T21:25:15.900Z,13.33
2019-06-20T21:27:44.542Z,13.20
2019-06-20T21:30:14.045Z,11.77
2019-06-20T21:32:42.505Z,13.43
2019-06-20T21:35:11.110Z,12.10
2019-06-20T21:37:39.477Z,12.20
2019-06-20T21:40:08.036Z,11.17
2019-06-20T21:42:37.209Z,13.70
2019-06-20T21:45:08.029Z,12.47
2019-06-20T21:47:37.222Z,12.27
2019-06-20T21:50:07.415Z,12.97
2019-06-20T21:52:37.558Z,13.93
2019-06-20T21:55:06.875Z,13.60
2019-06-20T21:57:38.055Z,12.50
2019-06-20T22:00:13.377Z,10.57
2019-06-20T22:02:41.860Z,10.87
2019-06-20T22:05:10.787Z,9.60
2019-06-20T22:07:40.048Z,9.53
2019-06-20T22:10:09.228Z,7.50
2019-06-20T22:12:37.699Z,6.30
2019-06-20T22:15:06.191Z,6.33
2019-06-20T22:17:34.660Z,6.60
2019-06-20T22:20:03.925Z,7.13
2019-06-20T22:22:32.340Z,5.90
2019-06-20T22:25:00.821Z,5.93
2019-06-20T22:27:29.379Z,5.60
2019-06-20T22:29:57.791Z,6.13
2019-06-20T22:32:26.287Z,6.10
2019-06-20T22:34:54.777Z,6.47
2019-06-20T22:37:23.254Z,5.67
2019-06-20T22:39:51.735Z,6.93
2019-06-20T22:42:20.232Z,7.30
2019-06-20T22:44:48.609Z,6.97
2019-06-20T22:47:17.025Z,6.17
2019-06-20T22:49:45.485Z,6.90
2019-06-20T22:52:15.668Z,6.63
2019-06-20T22:54:44.125Z,7.50
2019-06-20T22:57:14.338Z,9.77
2019-06-20T22:59:46.492Z,8.10
2019-06-20T23:02:13.377Z,7.57
2019-06-20T23:04:41.773Z,6.97
2019-06-20T23:07:10.135Z,7.07
2019-06-20T23:09:38.512Z,8.20
2019-06-20T23:12:06.877Z,7.77
2019-06-20T23:14:35.465Z,7.73
2019-06-20T23:17:03.963Z,6.83
2019-06-20T23:19:32.832Z,6.80
2019-06-20T23:22:01.292Z,6.70
2019-06-20T23:24:29.676Z,6.53
2019-06-20T23:26:58.121Z,6.37
2019-06-20T23:29:26.635Z,6.47
2019-06-20T23:31:55.757Z,6.17
2019-06-20T23:34:24.126Z,6.93
2019-06-20T23:36:52.598Z,5.80
2019-06-20T23:39:21.051Z,5.40
2019-06-20T23:41:49.425Z,7.00
2019-06-20T23:44:18.400Z,5.33
2019-06-20T23:46:46.876Z,6.30
2019-06-20T23:49:15.239Z,5.37
2019-06-20T23:51:53.086Z,4.77
2019-06-20T23:54:21.446Z,4.73
2019-06-20T23:56:49.941Z,5.80
2019-06-20T23:59:18.288Z,5.03
